createdAt,value
2023-03-17T00:00:51.957Z,5.13
2023-03-17T00:04:55.172Z,5.10
2023-03-17T00:08:59.674Z,5.05
2023-03-17T00:13:05.456Z,5.03
2023-03-17T00:17:13.535Z,4.98
2023-03-17T00:21:20.296Z,4.93
2023-03-17T00:25:29.523Z,4.88
2023-03-17T00:29:33.273Z,4.80
2023-03-17T00:33:38.987Z,4.73
2023-03-17T00:37:42.380Z,4.68
2023-03-17T00:45:51.702Z,4.62
2023-03-17T00:49:55.146Z,4.60
2023-03-17T00:53:58.805Z,4.58
2023-03-17T00:58:03.907Z,4.58
2023-03-17T01:02:07.729Z,4.58
2023-03-17T01:06:14.356Z,4.56
2023-03-17T01:10:20.791Z,4.57
2023-03-17T01:14:26.437Z,4.57
2023-03-17T01:18:29.972Z,4.55
2023-03-17T01:22:33.425Z,4.53
2023-03-17T01:26:36.870Z,4.51
2023-03-17T01:30:42.671Z,4.52
2023-03-17T01:34:46.451Z,4.51
2023-03-17T01:38:51.494Z,4.49
2023-03-17T01:43:00.997Z,4.47
2023-03-17T01:47:06.012Z,4.43
2023-03-17T01:51:14.194Z,4.40
2023-03-17T01:55:20.681Z,4.37
2023-03-17T01:59:27.693Z,4.34
2023-03-17T02:03:32.547Z,4.32
2023-03-17T02:07:35.519Z,4.31
2023-03-17T02:11:41.338Z,4.30
2023-03-17T02:15:48.976Z,4.31
2023-03-17T02:19:54.135Z,4.30
2023-03-17T02:23:59.581Z,4.28
2023-03-17T02:28:09.427Z,4.28
2023-03-17T02:32:12.972Z,4.25
2023-03-17T02:36:17.022Z,4.21
2023-03-17T02:40:22.623Z,4.19
2023-03-17T02:44:27.611Z,4.13
2023-03-17T02:48:31.350Z,4.07
2023-03-17T02:52:35.057Z,4.05
2023-03-17T02:56:39.864Z,4.00
2023-03-17T03:00:43.437Z,3.94
2023-03-17T03:04:47.473Z,3.90
2023-03-17T03:08:50.975Z,3.86
2023-03-17T03:12:56.018Z,3.82
2023-03-17T03:17:00.208Z,3.76
2023-03-17T03:21:04.394Z,3.71
2023-03-17T03:25:09.457Z,3.65
2023-03-17T03:29:14.346Z,3.58
2023-03-17T03:33:18.876Z,3.52
2023-03-17T03:37:22.153Z,3.47
2023-03-17T03:41:25.716Z,3.42
2023-03-17T03:45:31.186Z,3.37
2023-03-17T03:49:34.519Z,3.27
2023-03-17T03:53:38.174Z,3.27
2023-03-17T03:57:41.808Z,3.26
2023-03-17T04:01:46.247Z,3.26
2023-03-17T04:05:49.759Z,3.25
2023-03-17T04:09:53.185Z,3.25
2023-03-17T04:13:56.625Z,3.27
2023-03-17T04:18:01.634Z,3.25
2023-03-17T04:22:05.193Z,3.21
2023-03-17T04:26:09.123Z,3.19
2023-03-17T04:30:15.297Z,3.15
2023-03-17T04:34:20.690Z,3.14
2023-03-17T04:38:24.582Z,3.11
2023-03-17T04:42:27.892Z,3.09
2023-03-17T04:46:31.690Z,3.04
2023-03-17T04:50:36.551Z,3.09
2023-03-17T04:54:40.080Z,3.10
2023-03-17T04:58:43.956Z,3.08
2023-03-17T05:02:47.092Z,3.06
2023-03-17T05:06:52.214Z,3.04
2023-03-17T05:10:56.181Z,2.97
2023-03-17T05:14:59.403Z,3.02
2023-03-17T05:19:02.496Z,3.02
2023-03-17T05:23:07.102Z,3.04
2023-03-17T05:27:10.520Z,3.05
2023-03-17T05:31:13.599Z,3.07
2023-03-17T05:35:17.688Z,3.09
2023-03-17T05:39:22.305Z,3.13
2023-03-17T05:43:25.590Z,3.18
2023-03-17T05:47:28.756Z,3.26
2023-03-17T05:51:31.853Z,3.37
2023-03-17T05:55:36.430Z,3.48
2023-03-17T05:59:39.562Z,3.59
2023-03-17T06:03:42.859Z,3.74
2023-03-17T06:07:54.005Z,3.83
2023-03-17T06:12:01.730Z,4.03
2023-03-17T06:16:05.038Z,4.14
2023-03-17T06:20:09.419Z,4.27
2023-03-17T06:24:13.032Z,4.37
2023-03-17T06:28:17.545Z,4.61
2023-03-17T06:32:21.251Z,4.77
2023-03-17T06:36:24.525Z,4.95
2023-03-17T06:40:27.768Z,5.13
2023-03-17T06:44:32.446Z,5.36
2023-03-17T06:48:36.265Z,5.58
2023-03-17T06:52:40.096Z,5.89
2023-03-17T06:56:44.588Z,6.22
2023-03-17T07:00:49.516Z,6.54
2023-03-17T07:04:54.171Z,6.80
2023-03-17T07:08:58.253Z,7.10
2023-03-17T07:13:02.761Z,7.31
2023-03-17T07:17:08.059Z,7.48
2023-03-17T07:21:11.178Z,7.60
2023-03-17T07:25:14.475Z,7.72
2023-03-17T07:29:18.454Z,7.90
2023-03-17T07:33:23.059Z,8.24
2023-03-17T07:37:26.458Z,8.75
2023-03-17T07:41:30.312Z,9.38
2023-03-17T07:45:35.329Z,10.05
2023-03-17T07:49:42.096Z,10.73
2023-03-17T07:53:45.539Z,11.35
2023-03-17T07:57:48.700Z,11.86
2023-03-17T08:01:51.923Z,12.22
2023-03-17T08:05:57.787Z,12.54
2023-03-17T08:10:01.234Z,12.74
2023-03-17T08:14:04.586Z,12.86
2023-03-17T08:18:09.622Z,13.02
2023-03-17T08:22:14.511Z,13.26
2023-03-17T08:26:19.144Z,13.54
2023-03-17T08:30:24.248Z,13.84
2023-03-17T08:34:27.568Z,14.09
2023-03-17T08:38:32.280Z,14.36
2023-03-17T08:42:35.381Z,14.56
2023-03-17T08:46:38.828Z,14.68
2023-03-17T08:50:41.864Z,14.85
2023-03-17T08:54:47.543Z,15.01
2023-03-17T08:58:52.005Z,15.26
2023-03-17T09:02:55.902Z,15.51
2023-03-17T09:07:03.715Z,15.70
2023-03-17T09:11:10.997Z,15.89
2023-03-17T09:15:14.180Z,16.06
2023-03-17T09:19:17.954Z,16.28
2023-03-17T09:23:21.145Z,16.52
2023-03-17T09:27:25.700Z,16.89
2023-03-17T09:31:29.015Z,17.21
2023-03-17T09:35:32.538Z,17.48
2023-03-17T09:43:56.260Z,17.86
2023-03-17T09:48:23.116Z,18.03
2023-03-17T09:52:29.985Z,18.15
2023-03-17T09:56:34.894Z,18.25
2023-03-17T10:00:39.682Z,18.38
2023-03-17T10:04:45.564Z,18.46
2023-03-17T10:08:57.085Z,18.54
2023-03-17T10:13:11.103Z,18.61
2023-03-17T10:17:19.721Z,18.65
2023-03-17T10:21:27.295Z,18.59
2023-03-17T10:25:35.957Z,18.57
2023-03-17T10:30:15.291Z,18.58
2023-03-17T10:34:23.994Z,18.62
2023-03-17T10:38:27.256Z,18.70
2023-03-17T10:42:32.635Z,18.80
2023-03-17T10:46:36.169Z,18.92
2023-03-17T10:50:41.517Z,18.95
2023-03-17T10:54:49.518Z,18.86
2023-03-17T10:58:55.471Z,18.81
2023-03-17T11:03:01.450Z,18.81
2023-03-17T11:07:11.914Z,18.94
2023-03-17T11:11:28.538Z,19.08
2023-03-17T11:15:35.232Z,19.23
2023-03-17T11:19:45.160Z,19.37
2023-03-17T11:23:54.398Z,19.43
2023-03-17T11:28:09.766Z,19.47
2023-03-17T11:32:25.292Z,19.42
2023-03-17T11:36:43.817Z,19.39
2023-03-17T11:41:11.094Z,19.38
2023-03-17T11:45:25.269Z,19.37
2023-03-17T11:49:36.342Z,19.37
2023-03-17T11:53:55.051Z,19.33
2023-03-17T11:58:05.515Z,19.37
2023-03-17T12:02:21.896Z,19.39
2023-03-17T12:06:30.902Z,19.42
2023-03-17T12:10:39.925Z,19.37
2023-03-17T12:14:49.053Z,19.35
2023-03-17T12:18:59.477Z,19.35
2023-03-17T12:23:08.178Z,19.32
2023-03-17T12:27:15.300Z,19.27
2023-03-17T12:31:26.852Z,19.27
2023-03-17T12:35:32.710Z,19.32
2023-03-17T12:39:39.828Z,19.47
2023-03-17T12:43:56.208Z,19.72
2023-03-17T12:48:11.386Z,19.93
2023-03-17T12:52:26.293Z,20.13
2023-03-17T12:56:31.231Z,20.26
2023-03-17T13:00:50.058Z,20.41
2023-03-17T13:04:58.265Z,20.53
2023-03-17T13:09:31.607Z,20.60
2023-03-17T13:13:41.947Z,20.59
2023-03-17T13:17:45.307Z,20.46
2023-03-17T13:22:27.064Z,20.25
2023-03-17T13:26:55.078Z,20.03
2023-03-17T13:31:10.438Z,19.82
2023-03-17T13:35:20.753Z,19.60
2023-03-17T13:39:53.306Z,19.43
2023-03-17T13:44:17.074Z,19.27
2023-03-17T13:48:28.502Z,19.15
2023-03-17T13:52:36.097Z,19.04
2023-03-17T13:56:59.527Z,18.95
2023-03-17T14:01:07.817Z,18.93
2023-03-17T14:05:23.310Z,18.92
2023-03-17T14:09:37.694Z,18.94
2023-03-17T14:13:48.402Z,18.98
2023-03-17T14:17:56.949Z,19.04
2023-03-17T14:22:04.699Z,19.09
2023-03-17T14:26:12.852Z,19.18
2023-03-17T14:30:23.337Z,19.33
2023-03-17T14:34:26.553Z,19.51
2023-03-17T14:38:31.923Z,19.67
2023-03-17T14:42:35.418Z,19.76
2023-03-17T14:46:41.348Z,19.78
2023-03-17T14:50:52.930Z,19.73
2023-03-17T14:54:59.580Z,19.62
2023-03-17T14:59:07.970Z,19.51
2023-03-17T15:03:21.338Z,19.43
2023-03-17T15:07:32.590Z,19.37
2023-03-17T15:11:41.153Z,19.36
2023-03-17T15:15:45.173Z,19.31
2023-03-17T15:19:51.400Z,19.29
2023-03-17T15:23:54.813Z,19.23
2023-03-17T15:27:58.186Z,19.14
2023-03-17T15:32:06.589Z,19.03
2023-03-17T15:36:31.425Z,18.89
2023-03-17T15:40:35.350Z,18.70
2023-03-17T15:44:38.289Z,18.52
2023-03-17T15:48:41.862Z,18.33
2023-03-17T15:52:46.841Z,18.16
2023-03-17T15:56:50.249Z,17.94
2023-03-17T16:00:57.103Z,17.76
2023-03-17T16:05:01.906Z,17.53
2023-03-17T16:09:07.674Z,17.28
2023-03-17T16:13:11.080Z,17.12
2023-03-17T16:17:21.144Z,16.93
2023-03-17T16:21:24.323Z,16.74
2023-03-17T16:25:30.882Z,16.57
2023-03-17T16:29:34.156Z,16.40
2023-03-17T16:33:40.556Z,16.26
2023-03-17T16:37:44.125Z,16.08
2023-03-17T16:41:49.603Z,15.93
2023-03-17T16:45:54.343Z,15.73
2023-03-17T16:49:57.251Z,15.55
2023-03-17T16:54:00.795Z,15.37
2023-03-17T16:58:15.826Z,15.20
2023-03-17T17:02:19.076Z,15.04
2023-03-17T17:06:22.811Z,14.89
2023-03-17T17:10:27.385Z,14.70
2023-03-17T17:14:31.656Z,14.64
2023-03-17T17:18:37.392Z,14.54
2023-03-17T17:22:40.985Z,14.42
2023-03-17T17:26:44.532Z,14.33
2023-03-17T17:31:13.670Z,14.24
2023-03-17T17:35:17.634Z,14.13
2023-03-17T17:39:20.603Z,14.06
2023-03-17T17:43:24.914Z,13.96
2023-03-17T17:47:32.108Z,13.93
2023-03-17T17:51:35.723Z,13.89
2023-03-17T17:55:39.366Z,13.84
2023-03-17T17:59:42.876Z,13.80
2023-03-17T18:03:47.190Z,13.78
2023-03-17T18:07:50.494Z,13.74
2023-03-17T18:11:54.652Z,13.66
2023-03-17T18:15:58.021Z,13.63
2023-03-17T18:20:02.680Z,13.59
2023-03-17T18:24:07.241Z,13.55
2023-03-17T18:28:10.616Z,13.51
2023-03-17T18:32:14.781Z,13.45
2023-03-17T18:36:20.212Z,13.36
2023-03-17T18:40:23.350Z,13.33
2023-03-17T18:44:26.821Z,13.27
2023-03-17T18:48:30.254Z,13.17
2023-03-17T18:52:35.708Z,13.07
2023-03-17T18:56:38.722Z,13.02
2023-03-17T19:00:42.695Z,12.96
2023-03-17T19:04:47.867Z,12.90
2023-03-17T19:08:53.437Z,12.82
2023-03-17T19:12:58.815Z,12.74
2023-03-17T19:17:02.203Z,12.66
2023-03-17T19:21:05.552Z,12.53
2023-03-17T19:25:11.714Z,12.49
2023-03-17T19:29:17.676Z,12.40
2023-03-17T19:33:20.973Z,12.30
2023-03-17T19:37:23.974Z,12.19
2023-03-17T19:41:32.971Z,12.12
2023-03-17T19:45:36.310Z,12.05
2023-03-17T19:49:39.871Z,11.97
2023-03-17T19:53:42.820Z,11.92
2023-03-17T19:57:47.472Z,11.87
2023-03-17T20:01:50.661Z,11.80
2023-03-17T20:05:54.651Z,11.75
2023-03-17T20:09:57.563Z,11.68
2023-03-17T20:14:02.653Z,11.63
2023-03-17T20:18:05.678Z,11.55
2023-03-17T20:22:11.212Z,11.47
2023-03-17T20:26:14.294Z,11.41
2023-03-17T20:30:30.642Z,11.35
2023-03-17T20:34:34.909Z,11.27
2023-03-17T20:38:39.642Z,11.19
2023-03-17T20:42:42.742Z,11.11
2023-03-17T20:46:47.914Z,11.05
2023-03-17T20:50:51.127Z,10.97
2023-03-17T20:54:55.350Z,10.89
2023-03-17T20:58:59.439Z,10.83
2023-03-17T21:03:04.885Z,10.77
2023-03-17T21:07:09.486Z,10.69
2023-03-17T21:11:17.542Z,10.61
2023-03-17T21:15:24.423Z,10.51
2023-03-17T21:19:33.565Z,10.42
2023-03-17T21:23:38.409Z,10.33
2023-03-17T21:27:42.752Z,10.25
2023-03-17T21:31:46.867Z,10.17
2023-03-17T21:35:52.198Z,10.10
2023-03-17T21:39:56.680Z,10.00
2023-03-17T21:44:00.168Z,9.90
2023-03-17T21:48:03.453Z,9.79
2023-03-17T21:52:10.462Z,9.69
2023-03-17T21:56:13.942Z,9.59
2023-03-17T22:00:18.207Z,9.50
2023-03-17T22:04:21.103Z,9.45
2023-03-17T22:08:25.798Z,9.40
2023-03-17T22:12:29.275Z,9.34
2023-03-17T22:16:32.725Z,9.30
2023-03-17T22:20:35.919Z,9.27
2023-03-17T22:24:40.676Z,9.25
2023-03-17T22:28:45.364Z,9.21
2023-03-17T22:32:49.294Z,9.18
2023-03-17T22:36:52.517Z,9.16
2023-03-17T22:41:05.654Z,9.13
2023-03-17T22:45:12.668Z,9.10
2023-03-17T22:49:16.704Z,9.08
2023-03-17T22:53:19.597Z,9.02
2023-03-17T22:57:24.521Z,8.99
2023-03-17T23:01:27.780Z,8.93
2023-03-17T23:05:31.626Z,8.87
2023-03-17T23:09:34.837Z,8.81
2023-03-17T23:13:40.893Z,8.78
2023-03-17T23:17:43.932Z,8.73
2023-03-17T23:21:47.459Z,8.68
2023-03-17T23:25:50.482Z,8.63
2023-03-17T23:30:32.877Z,8.58
2023-03-17T23:34:39.733Z,8.55
2023-03-17T23:38:44.441Z,8.49
2023-03-17T23:42:49.135Z,8.46
2023-03-17T23:46:54.259Z,8.46
2023-03-17T23:50:57.251Z,8.42
2023-03-17T23:55:03.260Z,8.38
2023-03-17T23:59:07.595Z,8.31
